createdAt,value
2017-06-14T00:10:10.371Z,0
2017-06-14T00:20:24.474Z,0
2017-06-14T00:30:39.065Z,0
2017-06-14T00:40:53.257Z,0
2017-06-14T00:51:08.755Z,0
2017-06-14T01:01:23.277Z,0
2017-06-14T01:11:38.056Z,0
2017-06-14T01:21:53.235Z,0
2017-06-14T01:32:07.719Z,0
2017-06-14T01:42:22.482Z,0
2017-06-14T01:52:37.729Z,0
2017-06-14T02:02:52.517Z,0
2017-06-14T02:13:07.516Z,0
2017-06-14T02:23:22.113Z,0
2017-06-14T02:33:36.833Z,0
2017-06-14T02:43:50.588Z,0
2017-06-14T02:54:05.721Z,0
2017-06-14T03:04:20.947Z,5
2017-06-14T03:14:35.366Z,15
2017-06-14T03:24:49.259Z,25
2017-06-14T03:35:04.794Z,40
2017-06-14T03:45:20.224Z,55
2017-06-14T03:55:34.371Z,65
2017-06-14T04:05:49.257Z,80
2017-06-14T04:16:04.363Z,90
2017-06-14T04:26:19.528Z,110
2017-06-14T04:36:34.538Z,125
2017-06-14T04:46:48.650Z,140
2017-06-14T04:57:03.394Z,145
2017-06-14T05:07:18.155Z,155
2017-06-14T05:17:33.622Z,165
2017-06-14T05:27:48.885Z,170
2017-06-14T05:38:02.854Z,180
2017-06-14T05:48:17.829Z,190
2017-06-14T05:58:32.961Z,305
2017-06-14T06:08:47.768Z,740
2017-06-14T06:19:02.604Z,870
2017-06-14T06:29:16.441Z,1315
2017-06-14T06:39:30.997Z,835
2017-06-14T06:49:46.616Z,1205
2017-06-14T07:00:02.177Z,1265
2017-06-14T07:10:17.903Z,1370
2017-06-14T07:20:32.086Z,1320
2017-06-14T07:30:47.242Z,1315
2017-06-14T07:41:03.001Z,1560
2017-06-14T07:51:17.132Z,1550
2017-06-14T08:01:31.804Z,1615
2017-06-14T08:11:47.575Z,1690
2017-06-14T08:22:01.531Z,1740
2017-06-14T08:32:17.252Z,1825
2017-06-14T08:42:31.210Z,1830
2017-06-14T08:52:45.751Z,1830
2017-06-14T09:03:01.262Z,1950
2017-06-14T09:13:17.166Z,2010
2017-06-14T09:23:32.375Z,2045
2017-06-14T09:33:47.281Z,2010
2017-06-14T09:44:01.482Z,2045
2017-06-14T09:54:17.348Z,2160
2017-06-14T10:04:32.117Z,2165
2017-06-14T10:14:46.194Z,2165
2017-06-14T10:25:02.084Z,2050
2017-06-14T10:35:16.968Z,2045
2017-06-14T10:45:32.127Z,2165
2017-06-14T10:55:46.350Z,2345
2017-06-14T11:06:01.878Z,2310
2017-06-14T11:16:15.878Z,2260
2017-06-14T11:26:30.787Z,2015
2017-06-14T11:36:45.100Z,2155
2017-06-14T11:46:59.386Z,1975
2017-06-14T11:57:15.238Z,2115
2017-06-14T12:07:29.269Z,2225
2017-06-14T12:17:44.292Z,2140
2017-06-14T12:27:58.967Z,1905
2017-06-14T12:38:14.867Z,2045
2017-06-14T12:48:29.656Z,2020
2017-06-14T12:58:44.256Z,2030
2017-06-14T13:09:00.339Z,1870
2017-06-14T13:19:15.300Z,1720
2017-06-14T13:29:29.568Z,1615
2017-06-14T13:39:43.840Z,1375
2017-06-14T13:49:57.981Z,1205
2017-06-14T14:00:13.770Z,1035
2017-06-14T14:10:29.242Z,1240
2017-06-14T14:20:45.085Z,1530
2017-06-14T14:30:59.840Z,1410
2017-06-14T14:41:14.856Z,2600
2017-06-14T14:51:29.827Z,2235
2017-06-14T15:01:43.819Z,2110
2017-06-14T15:11:58.182Z,1750
2017-06-14T15:22:13.439Z,1750
2017-06-14T15:32:28.829Z,1575
2017-06-14T15:42:43.130Z,1390
2017-06-14T15:52:57.545Z,1490
2017-06-14T16:03:13.259Z,1275
2017-06-14T16:13:28.022Z,1355
2017-06-14T16:23:43.889Z,915
2017-06-14T16:33:58.346Z,1200
2017-06-14T16:44:12.752Z,490
2017-06-14T16:54:28.220Z,420
2017-06-14T17:04:43.888Z,365
2017-06-14T17:14:59.579Z,345
2017-06-14T17:25:14.677Z,320
2017-06-14T17:35:28.782Z,260
2017-06-14T17:45:43.480Z,280
2017-06-14T17:55:57.804Z,245
2017-06-14T18:06:13.015Z,210
2017-06-14T18:16:27.938Z,165
2017-06-14T18:26:42.489Z,130
2017-06-14T18:36:57.579Z,115
2017-06-14T18:47:11.552Z,105
2017-06-14T18:57:26.941Z,95
2017-06-14T19:07:41.782Z,85
2017-06-14T19:17:56.527Z,55
2017-06-14T19:28:12.331Z,40
2017-06-14T19:38:26.406Z,20
2017-06-14T19:48:41.131Z,10
2017-06-14T19:58:56.236Z,5
2017-06-14T20:09:10.365Z,0
2017-06-14T20:19:24.319Z,0
2017-06-14T20:29:39.713Z,0
2017-06-14T20:39:53.981Z,0
2017-06-14T20:50:07.868Z,0
2017-06-14T21:00:21.691Z,0
2017-06-14T21:10:36.500Z,0
2017-06-14T21:20:51.102Z,0
2017-06-14T21:31:05.910Z,0
2017-06-14T21:41:20.817Z,0
2017-06-14T21:51:35.799Z,0
2017-06-14T22:01:51.107Z,0
2017-06-14T22:12:06.782Z,0
2017-06-14T22:22:21.945Z,0
2017-06-14T22:32:36.534Z,0
2017-06-14T22:42:51.336Z,0
2017-06-14T22:53:05.286Z,0
2017-06-14T23:03:20.276Z,0
2017-06-14T23:13:35.506Z,0
2017-06-14T23:23:50.974Z,0
2017-06-14T23:34:04.855Z,0
2017-06-14T23:44:20.495Z,0
2017-06-14T23:54:34.329Z,0
